METAR Data
IDs: Format: Raw Decoded Include TAF

Data at: 0224 UTC 19 Oct 2021

PASX 190156Z AUTO 08005KT 10SM OVC090 06/M01 A2962 RMK AO2 SLP041 T00561011
PASX 190056Z AUTO 10SM CLR 07/M02 A2963 RMK AO2 SLP043 T00721022
PASX 182356Z AUTO 06008KT 10SM CLR 07/M02 A2964 RMK AO2 SLP045 T00721022 10072 20006 58007
PASX 182256Z AUTO 05007KT 10SM CLR 05/M03 A2965 RMK AO2 SLP049 T00501028
PASX 182156Z AUTO 08007KT 10SM FEW085 05/M03 A2965 RMK AO2 SLP051 T00501028
PASX 182056Z AUTO 10004KT 10SM CLR 02/M03 A2966 RMK AO2 SLP052 T00221028 51006 FZRANO
PASX 181956Z AUTO 10005KT 10SM CLR 01/M03 A2966 RMK AO2 SLP052 T00061028 FZRANO
PASX 181856Z AUTO 10004KT 10SM CLR 01/M03 A2965 RMK AO2 SLP050 T00111033 FZRANO
PASX 181756Z AUTO 08004KT 10SM CLR 02/M03 A2964 RMK AO2 SLP046 T00171028 10039 20017 53006 FZRANO
PASX 181656Z AUTO 09004KT 10SM CLR 02/M03 A2963 RMK AO2 SLP044 T00221028 FZRANO
PASX 181556Z AUTO 04006KT 10SM CLR 03/M03 A2962 RMK AO2 SLP041 T00331033
PASX 181456Z AUTO 03004KT 10SM CLR 03/M02 A2962 RMK AO2 SLP040 T00331022 53016
PASX 181356Z AUTO VRB04KT 10SM CLR 03/M03 A2960 RMK AO2 SLP034 T00331028
PASX 181256Z AUTO 01010KT 10SM CLR 04/M02 A2958 RMK AO2 SLP028 T00391022
PASX 181156Z AUTO 02006KT 10SM CLR 03/M02 A2957 RMK AO2 SLP024 T00331022 10044 20033 51017
PASX 181056Z AUTO 02007KT 10SM CLR 03/M02 A2956 RMK AO2 SLP019 T00331022
PASX 180956Z AUTO 02005KT 10SM CLR 03/M02 A2954 RMK AO2 SLP014 T00331017
PASX 180856Z AUTO 02008G18KT 10SM CLR 04/M02 A2952 RMK AO2 SLP007 T00391017 400441022 51023
PASX 180756Z AUTO 03012G18KT 10SM CLR 04/M02 A2950 RMK AO2 SLP000 T00441017
PASX 180656Z AUTO 03011G17KT 10SM CLR 04/M01 A2948 RMK AO2 SLP992 T00441011
PASX 180556Z AUTO 03011G20KT 10SM CLR 04/M01 A2946 RMK AO2 SLP984 T00441011 10044 20039 51026
PASX 180456Z AUTO 03010G16KT 10SM CLR 04/M02 A2944 RMK AO2 SLP977 T00441017
PASX 180356Z AUTO 03012G21KT 10SM CLR 04/M02 A2941 RMK AO2 SLP969 T00391017
PASX 180256Z AUTO 04012G20KT 10SM CLR 04/M01 A2938 RMK AO2 SLP957 T00391011 53009
PASX 180156Z AUTO 03011G17KT 10SM CLR 04/M01 A2936 RMK AO2 SLP953 T00441006
PASX 180056Z AUTO 03010G17KT 10SM CLR 04/M01 A2935 RMK AO2 SLP949 T00391006
PASX 172356Z AUTO 03008G18KT 10SM CLR 04/M01 A2935 RMK AO2 SLP949 T00391006 10039 20006 56006
PASX 172256Z AUTO 05011G15KT 10SM FEW040 04/M01 A2935 RMK AO2 SLP950 T00391006
PASX 172156Z AUTO 03007KT 10SM FEW065 SCT080 03/M01 A2936 RMK AO2 SLP951 T00331006
PASX 172056Z AUTO 04007KT 10SM CLR 03/M01 A2937 RMK AO2 SLP955 T00281006 57010
PASX 171956Z AUTO 05008KT 10SM CLR 02/00 A2938 RMK AO2 SLP957 T00220000 FZRANO
PASX 171856Z AUTO 05006KT 10SM BKN075 02/01 A2939 RMK AO2 SLP962 T00170006 FZRANO
PASX 171756Z AUTO 00000KT 10SM FEW080 01/00 A2940 RMK AO2 SLP965 T00060000 10006 21022 56021 FZRANO
PASX 171656Z AUTO 00000KT 10SM CLR 00/M01 A2941 RMK AO2 SLP970 T00001006 FZRANO
PASX 171456Z AUTO 00000KT 10SM CLR M01/M02 A2946 RMK AO2 SLP986 T10111017 56035 FZRANO